createdAt,value
2023-01-09T00:00:25.595Z,98455.59
2023-01-09T00:01:28.538Z,98451.88
2023-01-09T00:02:30.077Z,98453.94
2023-01-09T00:03:31.635Z,98440.44
2023-01-09T00:04:33.205Z,98443.66
2023-01-09T00:05:34.737Z,98447.44
2023-01-09T00:06:36.307Z,98446.13
2023-01-09T00:07:37.879Z,98443.94
2023-01-09T00:08:39.460Z,98446.63
2023-01-09T00:09:41.028Z,98439.50
2023-01-09T00:10:42.555Z,98440.94
2023-01-09T00:11:44.027Z,98426.94
2023-01-09T00:12:45.543Z,98442.50
2023-01-09T00:13:47.295Z,98430.81
2023-01-09T00:14:48.845Z,98426.81
2023-01-09T00:15:50.420Z,98432.69
2023-01-09T00:16:54.118Z,98436.38
2023-01-09T00:17:55.657Z,98429.47
2023-01-09T00:18:57.165Z,98428.16
2023-01-09T00:19:58.998Z,98429.59
2023-01-09T00:21:00.995Z,98414.22
2023-01-09T00:22:02.535Z,98417.44
2023-01-09T00:23:04.100Z,98436.63
2023-01-09T00:24:05.711Z,98411.44
2023-01-09T00:25:07.404Z,98412.13
2023-01-09T00:26:10.225Z,98406.47
2023-01-09T00:27:12.379Z,98407.63
2023-01-09T00:28:13.849Z,98409.06
2023-01-09T00:29:15.418Z,98400.16
2023-01-09T00:30:16.897Z,98411.84
2023-01-09T00:31:18.408Z,98413.00
2023-01-09T00:32:21.116Z,98415.16
2023-01-09T00:33:24.492Z,98408.75
2023-01-09T00:34:26.024Z,98406.47
2023-01-09T00:35:27.785Z,98407.31
2023-01-09T00:36:29.302Z,98391.72
2023-01-09T00:37:30.804Z,98401.00
2023-01-09T00:38:32.299Z,98403.91
2023-01-09T00:39:33.850Z,98397.63
2023-01-09T00:40:35.376Z,98402.06
2023-01-09T00:41:38.107Z,98423.84
2023-01-09T00:42:39.687Z,98398.03
2023-01-09T00:43:43.225Z,98413.09
2023-01-09T00:44:46.940Z,98422.16
2023-01-09T00:45:48.586Z,98400.91
2023-01-09T00:46:51.464Z,98391.63
2023-01-09T00:47:52.945Z,98408.16
2023-01-09T00:48:54.531Z,98414.53
2023-01-09T00:49:56.094Z,98412.38
2023-01-09T00:50:58.071Z,98411.44
2023-01-09T00:51:59.604Z,98411.88
2023-01-09T00:53:06.257Z,98414.41
2023-01-09T00:54:07.982Z,98423.41
2023-01-09T00:55:09.640Z,98414.53
2023-01-09T00:56:12.166Z,98415.03
2023-01-09T00:57:13.764Z,98419.09
2023-01-09T00:58:15.307Z,98409.59
2023-01-09T00:59:16.836Z,98422.56
2023-01-09T01:00:18.773Z,98415.56
2023-01-09T01:01:20.476Z,98416.81
2023-01-09T01:02:22.256Z,98424.53
2023-01-09T01:03:23.793Z,98424.66
2023-01-09T01:04:43.763Z,98426.19
2023-01-09T01:06:03.812Z,98424.66
2023-01-09T01:07:23.668Z,98425.47
2023-01-09T01:08:25.156Z,98428.16
2023-01-09T01:09:26.620Z,98429.81
2023-01-09T01:10:28.297Z,98426.50
2023-01-09T01:11:29.774Z,98432.91
2023-01-09T01:12:31.264Z,98440.63
2023-01-09T01:13:32.806Z,98424.22
2023-01-09T01:14:35.149Z,98433.09
2023-01-09T01:15:38.719Z,98436.63
2023-01-09T01:16:41.116Z,98443.72
2023-01-09T01:17:42.738Z,98423.81
2023-01-09T01:18:44.247Z,98431.88
2023-01-09T01:19:45.808Z,98428.88
2023-01-09T01:20:47.323Z,98436.59
2023-01-09T01:21:48.794Z,98436.19
2023-01-09T01:22:50.279Z,98427.44
2023-01-09T01:23:51.816Z,98426.59
2023-01-09T01:24:53.288Z,98418.44
2023-01-09T01:25:54.775Z,98421.75
2023-01-09T01:26:56.333Z,98414.31
2023-01-09T01:27:57.809Z,98430.63
2023-01-09T01:28:59.301Z,98432.50
2023-01-09T01:30:00.811Z,98418.84
2023-01-09T01:31:02.371Z,98421.34
2023-01-09T01:32:04.014Z,98420.72
2023-01-09T01:33:05.596Z,98425.97
2023-01-09T01:34:07.111Z,98429.97
2023-01-09T01:35:09.014Z,98418.75
2023-01-09T01:36:10.519Z,98420.91
2023-01-09T01:37:12.012Z,98425.75
2023-01-09T01:38:13.488Z,98424.19
2023-01-09T01:39:14.975Z,98431.84
2023-01-09T01:40:16.468Z,98426.59
2023-01-09T01:41:29.490Z,98428.75
2023-01-09T01:42:31.245Z,98433.31
2023-01-09T01:43:51.907Z,98433.69
2023-01-09T01:44:56.217Z,98434.75
2023-01-09T01:45:57.756Z,98451.53
2023-01-09T01:46:59.236Z,98461.97
2023-01-09T01:48:06.852Z,98466.78
2023-01-09T01:49:12.245Z,98462.44
2023-01-09T01:50:31.989Z,98466.00
2023-01-09T01:51:33.903Z,98469.69
2023-01-09T01:52:35.412Z,98474.34
2023-01-09T01:53:38.615Z,98468.63
2023-01-09T01:54:40.167Z,98476.34
2023-01-09T01:55:43.230Z,98472.94
2023-01-09T01:56:53.629Z,98476.75
2023-01-09T01:57:55.990Z,98476.63
2023-01-09T01:59:01.889Z,98477.66
2023-01-09T02:00:03.616Z,98477.84
2023-01-09T02:01:06.122Z,98474.41
2023-01-09T02:02:07.909Z,98478.53
2023-01-09T02:03:09.527Z,98476.25
2023-01-09T02:04:11.000Z,98471.31
2023-01-09T02:05:12.526Z,98474.09
2023-01-09T02:06:14.085Z,98467.38
2023-01-09T02:07:15.575Z,98469.25
2023-01-09T02:08:17.113Z,98476.47
2023-01-09T02:09:20.480Z,98477.78
2023-01-09T02:10:25.448Z,98482.22
2023-01-09T02:11:26.912Z,98482.22
2023-01-09T02:12:28.738Z,98474.34
2023-01-09T02:13:30.194Z,98474.88
2023-01-09T02:14:32.957Z,98464.19
2023-01-09T02:15:57.378Z,98470.31
2023-01-09T02:17:10.798Z,98460.78
2023-01-09T02:18:12.337Z,98465.22
2023-01-09T02:19:13.787Z,98463.25
2023-01-09T02:20:33.681Z,98466.88
2023-01-09T02:21:51.711Z,98469.16
2023-01-09T02:22:55.748Z,98473.09
2023-01-09T02:24:00.156Z,98471.13
2023-01-09T02:25:13.867Z,98466.16
2023-01-09T02:26:34.123Z,98470.59
2023-01-09T02:27:44.684Z,98475.56
2023-01-09T02:29:04.916Z,98472.47
2023-01-09T02:30:25.005Z,98464.91
2023-01-09T02:31:26.541Z,98462.94
2023-01-09T02:32:33.648Z,98461.78
2023-01-09T02:33:53.558Z,98459.00
2023-01-09T02:35:09.765Z,98468.72
2023-01-09T02:36:11.289Z,98470.34
2023-01-09T02:37:16.346Z,98467.69
2023-01-09T02:38:23.702Z,98472.47
2023-01-09T02:39:32.332Z,98461.94
2023-01-09T02:40:34.982Z,98464.84
2023-01-09T02:41:38.595Z,98463.19
2023-01-09T02:42:40.172Z,98457.94
2023-01-09T02:43:41.828Z,98462.03
2023-01-09T02:44:44.494Z,98464.84
2023-01-09T02:45:46.229Z,98479.13
2023-01-09T02:46:47.878Z,98482.75
2023-01-09T02:47:49.372Z,98490.09
2023-01-09T02:48:51.137Z,98481.84
2023-01-09T02:49:53.568Z,98483.69
2023-01-09T02:51:01.328Z,98495.06
2023-01-09T02:52:08.732Z,98491.13
2023-01-09T02:53:17.807Z,98486.34
2023-01-09T02:54:19.250Z,98484.88
2023-01-09T02:55:40.995Z,98488.22
2023-01-09T02:56:48.188Z,98480.94
2023-01-09T02:57:52.536Z,98495.44
2023-01-09T02:58:54.696Z,98489.06
2023-01-09T03:00:14.894Z,98496.94
2023-01-09T03:01:25.397Z,98494.16
2023-01-09T03:02:29.369Z,98500.88
2023-01-09T03:03:50.038Z,98497.44
2023-01-09T03:04:54.179Z,98502.75
2023-01-09T03:06:01.652Z,98507.19
2023-01-09T03:07:05.816Z,98516.38
2023-01-09T03:08:12.429Z,98519.66
2023-01-09T03:09:15.200Z,98520.31
2023-01-09T03:10:20.779Z,98510.56
2023-01-09T03:11:22.319Z,98510.38
2023-01-09T03:12:24.715Z,98516.16
2023-01-09T03:13:26.590Z,98520.31
2023-01-09T03:14:28.279Z,98513.25
2023-01-09T03:15:30.746Z,98518.22
2023-01-09T03:16:32.866Z,98525.44
2023-01-09T03:17:37.783Z,98531.84
2023-01-09T03:18:39.263Z,98534.97
2023-01-09T03:19:40.798Z,98527.41
2023-01-09T03:20:42.417Z,98538.06
2023-01-09T03:21:43.936Z,98532.50
2023-01-09T03:22:46.205Z,98538.06
2023-01-09T03:23:56.864Z,98543.66
2023-01-09T03:24:58.439Z,98544.28
2023-01-09T03:25:59.931Z,98541.19
2023-01-09T03:27:01.543Z,98537.56
2023-01-09T03:28:04.677Z,98543.16
2023-01-09T03:29:06.161Z,98549.88
2023-01-09T03:30:08.108Z,98551.53
2023-01-09T03:31:09.641Z,98550.69
2023-01-09T03:32:11.184Z,98555.47
2023-01-09T03:33:12.665Z,98558.56
2023-01-09T03:34:14.146Z,98550.19
2023-01-09T03:35:15.632Z,98544.91
2023-01-09T03:36:17.449Z,98549.97
2023-01-09T03:37:18.966Z,98544.38
2023-01-09T03:38:20.409Z,98552.78
2023-01-09T03:39:21.933Z,98549.66
2023-01-09T03:40:23.641Z,98550.47
2023-01-09T03:41:25.166Z,98548.00
2023-01-09T03:42:26.655Z,98549.16
2023-01-09T03:43:28.433Z,98553.91
2023-01-09T03:44:29.918Z,98553.09
2023-01-09T03:45:31.465Z,98553.91
2023-01-09T03:46:32.967Z,98554.41
2023-01-09T03:47:34.460Z,98557.53
2023-01-09T03:48:35.991Z,98558.34
2023-01-09T03:49:37.451Z,98560.81
2023-01-09T03:50:38.898Z,98564.44
2023-01-09T03:51:40.413Z,98571.16
2023-01-09T03:52:41.888Z,98571.81
2023-01-09T03:53:43.422Z,98569.31
2023-01-09T03:54:44.924Z,98580.19
2023-01-09T03:55:46.967Z,98577.50
2023-01-09T03:56:48.486Z,98587.34
2023-01-09T03:57:50.183Z,98577.59
2023-01-09T03:58:53.269Z,98598.28
2023-01-09T03:59:54.741Z,98602.84
2023-01-09T04:00:59.991Z,98604.31
2023-01-09T04:02:03.728Z,98608.56
2023-01-09T04:03:05.650Z,98606.38
2023-01-09T04:04:07.243Z,98607.72
2023-01-09T04:05:09.093Z,98609.38
2023-01-09T04:06:10.617Z,98617.44
2023-01-09T04:07:12.203Z,98624.97
2023-01-09T04:08:13.671Z,98620.00
2023-01-09T04:09:15.184Z,98631.16
2023-01-09T04:10:16.788Z,98624.75
2023-01-09T04:11:18.314Z,98628.69
2023-01-09T04:12:19.772Z,98630.66
2023-01-09T04:13:21.281Z,98639.97
2023-01-09T04:14:22.854Z,98637.19
2023-01-09T04:15:24.411Z,98635.84
2023-01-09T04:16:26.046Z,98636.34
2023-01-09T04:17:27.544Z,98631.16
2023-01-09T04:18:29.017Z,98647.31
2023-01-09T04:19:30.616Z,98643.97
2023-01-09T04:20:32.425Z,98655.69
2023-01-09T04:21:33.869Z,98662.41
2023-01-09T04:22:35.342Z,98652.91
2023-01-09T04:23:37.263Z,98659.00
2023-01-09T04:24:38.748Z,98666.72
2023-01-09T04:25:40.296Z,98669.53
2023-01-09T04:26:41.787Z,98676.75
2023-01-09T04:27:43.248Z,98682.03
2023-01-09T04:28:44.716Z,98670.84
2023-01-09T04:29:46.295Z,98684.28
2023-01-09T04:30:47.774Z,98682.22
2023-01-09T04:31:49.282Z,98697.63
2023-01-09T04:32:52.295Z,98687.09
2023-01-09T04:33:53.793Z,98691.94
2023-01-09T04:34:55.320Z,98708.88
2023-01-09T04:35:56.896Z,98704.97
2023-01-09T04:36:58.385Z,98706.28
2023-01-09T04:38:00.863Z,98705.78
2023-01-09T04:39:02.578Z,98708.88
2023-01-09T04:40:10.778Z,98714.47
2023-01-09T04:41:32.296Z,98719.41
2023-01-09T04:42:33.839Z,98720.25
2023-01-09T04:43:35.329Z,98716.13
2023-01-09T04:44:36.928Z,98719.22
2023-01-09T04:45:38.564Z,98721.25
2023-01-09T04:46:40.043Z,98726.53
2023-01-09T04:47:41.515Z,98727.44
2023-01-09T04:48:43.040Z,98726.41
2023-01-09T04:49:44.557Z,98724.13
2023-01-09T04:50:46.022Z,98727.13
2023-01-09T04:51:47.581Z,98718.47
2023-01-09T04:52:49.060Z,98721.25
2023-01-09T04:53:50.544Z,98728.50
2023-01-09T04:54:52.132Z,98726.28
2023-01-09T04:55:53.860Z,98727.22
2023-01-09T04:56:55.409Z,98723.28
2023-01-09T04:57:56.863Z,98723.59
2023-01-09T04:58:58.354Z,98729.69
2023-01-09T04:59:59.904Z,98735.06
2023-01-09T05:01:01.593Z,98727.59
2023-01-09T05:02:03.339Z,98736.06
2023-01-09T05:03:05.245Z,98734.41
2023-01-09T05:04:06.837Z,98738.56
2023-01-09T05:05:11.373Z,98735.25
2023-01-09T05:06:13.271Z,98728.31
2023-01-09T05:07:14.790Z,98733.34
2023-01-09T05:08:16.246Z,98724.72
2023-01-09T05:09:17.736Z,98730.03
2023-01-09T05:10:19.249Z,98734.59
2023-01-09T05:11:20.721Z,98724.94
2023-01-09T05:12:22.293Z,98735.28
2023-01-09T05:13:23.795Z,98728.34
2023-01-09T05:14:25.287Z,98734.53
2023-01-09T05:15:28.403Z,98725.41
2023-01-09T05:16:31.329Z,98723.56
2023-01-09T05:17:32.841Z,98735.00
2023-01-09T05:18:34.349Z,98745.84
2023-01-09T05:19:35.896Z,98733.88
2023-01-09T05:20:37.533Z,98739.66
2023-01-09T05:21:39.041Z,98738.84
2023-01-09T05:22:40.566Z,98741.88
2023-01-09T05:23:42.117Z,98734.09
2023-01-09T05:24:43.596Z,98744.72
2023-01-09T05:25:45.136Z,98737.19
2023-01-09T05:26:46.691Z,98744.72
2023-01-09T05:27:48.190Z,98748.31
2023-01-09T05:28:52.574Z,98751.22
2023-01-09T05:29:54.130Z,98751.22
2023-01-09T05:30:55.785Z,98745.63
2023-01-09T05:31:57.416Z,98754.06
2023-01-09T05:32:58.959Z,98745.69
2023-01-09T05:34:00.881Z,98754.31
2023-01-09T05:35:02.454Z,98764.00
2023-01-09T05:36:04.105Z,98756.25
2023-01-09T05:37:05.636Z,98762.66
2023-01-09T05:38:07.158Z,98764.31
2023-01-09T05:39:08.664Z,98769.59
2023-01-09T05:40:10.517Z,98782.47
2023-01-09T05:41:11.983Z,98781.91
2023-01-09T05:42:13.473Z,98786.97
2023-01-09T05:43:15.015Z,98790.28
2023-01-09T05:44:16.530Z,98794.19
2023-01-09T05:45:18.017Z,98791.97
2023-01-09T05:46:19.584Z,98797.28
2023-01-09T05:47:21.113Z,98798.81
2023-01-09T05:48:22.605Z,98815.06
2023-01-09T05:49:24.251Z,98807.84
2023-01-09T05:50:25.733Z,98806.78
2023-01-09T05:51:27.358Z,98818.44
2023-01-09T05:52:29.050Z,98819.59
2023-01-09T05:53:30.558Z,98814.84
2023-01-09T05:54:32.019Z,98810.69
2023-01-09T05:55:33.801Z,98820.19
2023-01-09T05:56:35.292Z,98817.44
2023-01-09T05:57:36.803Z,98812.78
2023-01-09T05:58:38.311Z,98814.22
2023-01-09T05:59:39.787Z,98818.41
2023-01-09T06:00:41.253Z,98824.22
2023-01-09T06:01:42.812Z,98832.03
2023-01-09T06:02:44.493Z,98830.69
2023-01-09T06:03:46.108Z,98832.94
2023-01-09T06:04:47.594Z,98829.25
2023-01-09T06:05:49.257Z,98832.59
2023-01-09T06:06:50.832Z,98839.28
2023-01-09T06:07:52.337Z,98834.25
2023-01-09T06:08:53.847Z,98837.59
2023-01-09T06:09:55.345Z,98835.69
2023-01-09T06:10:56.815Z,98842.34
2023-01-09T06:11:58.409Z,98840.38
2023-01-09T06:12:59.929Z,98840.13
2023-01-09T06:14:01.894Z,98842.91
2023-01-09T06:15:03.463Z,98835.69
2023-01-09T06:16:05.212Z,98845.13
2023-01-09T06:17:06.719Z,98839.28
2023-01-09T06:18:08.272Z,98830.94
2023-01-09T06:19:09.773Z,98837.16
2023-01-09T06:20:11.394Z,98841.66
2023-01-09T06:21:12.942Z,98839.53
2023-01-09T06:22:14.411Z,98837.88
2023-01-09T06:23:15.885Z,98844.56
2023-01-09T06:24:17.461Z,98844.25
2023-01-09T06:25:19.593Z,98839.00
2023-01-09T06:26:21.161Z,98845.69
2023-01-09T06:27:22.631Z,98848.22
2023-01-09T06:28:24.123Z,98850.78
2023-01-09T06:29:25.661Z,98850.84
2023-01-09T06:30:27.225Z,98853.03
2023-01-09T06:31:28.750Z,98851.06
2023-01-09T06:32:30.267Z,98851.81
2023-01-09T06:33:32.237Z,98854.88
2023-01-09T06:34:33.729Z,98853.75
2023-01-09T06:35:35.261Z,98852.31
2023-01-09T06:36:36.728Z,98863.53
2023-01-09T06:37:38.177Z,98857.00
2023-01-09T06:38:39.756Z,98874.78
2023-01-09T06:39:41.235Z,98852.78
2023-01-09T06:40:42.801Z,98869.97
2023-01-09T06:41:47.049Z,98866.19
2023-01-09T06:42:50.076Z,98870.34
2023-01-09T06:43:51.572Z,98858.34
2023-01-09T06:44:53.032Z,98869.78
2023-01-09T06:45:54.656Z,98883.72
2023-01-09T06:46:56.186Z,98881.16
2023-01-09T06:47:57.650Z,98890.34
2023-01-09T06:48:59.139Z,98883.72
2023-01-09T06:50:00.625Z,98875.41
2023-01-09T06:51:02.116Z,98888.19
2023-01-09T06:52:05.745Z,98895.66
2023-01-09T06:53:07.453Z,98899.81
2023-01-09T06:54:08.892Z,98893.75
2023-01-09T06:55:10.408Z,98905.53
2023-01-09T06:56:11.977Z,98892.16
2023-01-09T06:57:14.690Z,98898.25
2023-01-09T06:58:16.272Z,98898.78
2023-01-09T06:59:17.760Z,98905.72
2023-01-09T07:00:19.315Z,98899.38
2023-01-09T07:01:20.973Z,98900.25
2023-01-09T07:02:22.607Z,98894.94
2023-01-09T07:03:24.117Z,98901.81
2023-01-09T07:04:25.737Z,98900.41
2023-01-09T07:05:27.358Z,98891.41
2023-01-09T07:06:28.857Z,98889.09
2023-01-09T07:07:30.332Z,98890.28
2023-01-09T07:08:31.977Z,98883.66
2023-01-09T07:09:33.437Z,98886.44
2023-01-09T07:10:34.946Z,98889.28
2023-01-09T07:11:36.459Z,98880.63
2023-01-09T07:12:37.960Z,98891.50
2023-01-09T07:13:39.501Z,98892.09
2023-01-09T07:14:40.977Z,98882.69
2023-01-09T07:15:42.553Z,98889.91
2023-01-09T07:16:44.100Z,98897.44
2023-01-09T07:17:45.580Z,98891.03
2023-01-09T07:18:47.153Z,98887.72
2023-01-09T07:19:48.621Z,98899.47
2023-01-09T07:20:50.113Z,98901.72
2023-01-09T07:21:51.613Z,98895.03
2023-01-09T07:22:53.963Z,98891.66
2023-01-09T07:23:55.489Z,98876.25
2023-01-09T07:24:57.049Z,98902.28
2023-01-09T07:25:59.321Z,98903.41
2023-01-09T07:27:01.028Z,98902.25
2023-01-09T07:28:02.521Z,98899.97
2023-01-09T07:29:04.073Z,98896.38
2023-01-09T07:30:06.225Z,98908.38
2023-01-09T07:31:07.806Z,98902.91
2023-01-09T07:32:09.425Z,98912.13
2023-01-09T07:33:10.887Z,98906.88
2023-01-09T07:34:12.375Z,98904.56
2023-01-09T07:35:13.919Z,98906.19
2023-01-09T07:36:15.497Z,98911.13
2023-01-09T07:37:17.188Z,98914.72
2023-01-09T07:38:18.741Z,98919.19
2023-01-09T07:39:20.229Z,98915.53
2023-01-09T07:40:22.692Z,98922.72
2023-01-09T07:41:24.250Z,98913.81
2023-01-09T07:42:25.904Z,98913.50
2023-01-09T07:43:27.463Z,98923.16
2023-01-09T07:44:29.092Z,98930.34
2023-01-09T07:45:30.567Z,98924.41
2023-01-09T07:46:32.107Z,98917.97
2023-01-09T07:47:33.689Z,98919.03
2023-01-09T07:48:35.172Z,98919.56
2023-01-09T07:49:36.677Z,98923.41
2023-01-09T07:50:38.172Z,98921.16
2023-01-09T07:51:43.027Z,98917.00
2023-01-09T07:52:45.480Z,98925.63
2023-01-09T07:53:47.014Z,98919.47
2023-01-09T07:54:48.520Z,98923.91
2023-01-09T07:55:50.017Z,98921.66
2023-01-09T07:56:51.572Z,98922.47
2023-01-09T07:57:53.062Z,98926.63
2023-01-09T07:58:54.529Z,98915.47
2023-01-09T07:59:56.165Z,98910.16
2023-01-09T08:00:57.713Z,98920.47
2023-01-09T08:01:59.287Z,98923.25
2023-01-09T08:03:00.819Z,98915.47
2023-01-09T08:04:02.551Z,98919.91
2023-01-09T08:05:04.168Z,98927.13
2023-01-09T08:06:05.786Z,98919.34
2023-01-09T08:07:07.516Z,98931.34
2023-01-09T08:08:09.019Z,98926.97
2023-01-09T08:09:10.697Z,98932.25
2023-01-09T08:10:12.247Z,98931.47
2023-01-09T08:11:13.782Z,98928.97
2023-01-09T08:12:15.279Z,98933.41
2023-01-09T08:13:16.836Z,98931.47
2023-01-09T08:14:18.346Z,98934.53
2023-01-09T08:15:19.854Z,98938.88
2023-01-09T08:16:21.427Z,98942.47
2023-01-09T08:17:24.351Z,98950.31
2023-01-09T08:18:26.672Z,98949.31
2023-01-09T08:19:28.356Z,98938.81
2023-01-09T08:20:29.858Z,98944.44
2023-01-09T08:21:31.386Z,98939.41
2023-01-09T08:22:32.857Z,98965.88
2023-01-09T08:23:34.413Z,98944.44
2023-01-09T08:24:36.689Z,98945.03
2023-01-09T08:25:38.193Z,98947.81
2023-01-09T08:26:39.849Z,98948.88
2023-01-09T08:27:41.473Z,98948.59
2023-01-09T08:28:42.964Z,98948.25
2023-01-09T08:29:44.504Z,98954.97
2023-01-09T08:30:46.693Z,98950.84
2023-01-09T08:31:48.287Z,98947.75
2023-01-09T08:32:53.274Z,98961.19
2023-01-09T08:33:54.773Z,98951.72
2023-01-09T08:34:56.311Z,98955.94
2023-01-09T08:35:58.023Z,98949.28
2023-01-09T08:36:59.579Z,98950.13
2023-01-09T08:38:01.151Z,98953.13
2023-01-09T08:39:02.648Z,98958.97
2023-01-09T08:40:04.368Z,98944.22
2023-01-09T08:41:25.921Z,98952.72
2023-01-09T08:42:46.102Z,98945.50
2023-01-09T08:44:06.085Z,98945.50
2023-01-09T08:45:26.520Z,98950.78
2023-01-09T08:46:46.842Z,98948.72
2023-01-09T08:47:48.421Z,98948.69
2023-01-09T08:48:49.936Z,98958.22
2023-01-09T08:49:51.411Z,98963.31
2023-01-09T08:50:54.252Z,98951.06
2023-01-09T08:51:55.827Z,98954.41
2023-01-09T08:52:57.333Z,98955.50
2023-01-09T08:53:58.839Z,98957.16
2023-01-09T08:55:00.319Z,98958.28
2023-01-09T08:56:01.859Z,98952.72
2023-01-09T08:57:03.398Z,98950.78
2023-01-09T08:58:04.894Z,98949.69
2023-01-09T08:59:06.344Z,98950.75
2023-01-09T09:00:08.270Z,98950.97
2023-01-09T09:01:09.727Z,98943.13
2023-01-09T09:02:11.230Z,98955.03
2023-01-09T09:03:12.879Z,98958.34
2023-01-09T09:04:14.450Z,98947.56
2023-01-09T09:05:16.200Z,98955.44
2023-01-09T09:06:17.725Z,98958.22
2023-01-09T09:07:30.837Z,98953.25
2023-01-09T09:08:32.387Z,98957.22
2023-01-09T09:09:33.956Z,98955.56
2023-01-09T09:10:35.527Z,98956.41
2023-01-09T09:11:37.020Z,98959.72
2023-01-09T09:12:38.483Z,98963.59
2023-01-09T09:13:40.026Z,98956.41
2023-01-09T09:15:00.229Z,98955.50
2023-01-09T09:16:01.776Z,98960.00
2023-01-09T09:17:03.296Z,98957.16
2023-01-09T09:18:05.386Z,98963.19
2023-01-09T09:19:06.901Z,98964.81
2023-01-09T09:20:09.818Z,98965.34
2023-01-09T09:21:11.566Z,98979.63
2023-01-09T09:22:13.109Z,98965.69
2023-01-09T09:23:14.690Z,98968.72
2023-01-09T09:24:16.143Z,98969.56
2023-01-09T09:25:17.683Z,98969.84
2023-01-09T09:26:19.248Z,98967.59
2023-01-09T09:27:20.726Z,98967.00
2023-01-09T09:28:22.278Z,98969.75
2023-01-09T09:29:23.769Z,98951.97
2023-01-09T09:30:25.239Z,98962.75
2023-01-09T09:31:26.723Z,98956.00
2023-01-09T09:32:28.402Z,98961.56
2023-01-09T09:33:30.378Z,98964.06
2023-01-09T09:34:32.061Z,98963.50
2023-01-09T09:35:34.147Z,98964.13
2023-01-09T09:36:35.732Z,98966.31
2023-01-09T09:37:37.489Z,98960.44
2023-01-09T09:38:38.993Z,98972.38
2023-01-09T09:39:40.495Z,98970.34
2023-01-09T09:40:41.937Z,98966.97
2023-01-09T09:42:14.502Z,98968.34
2023-01-09T09:43:37.566Z,98971.69
2023-01-09T09:44:53.893Z,98980.34
2023-01-09T09:46:01.777Z,98975.31
2023-01-09T09:47:06.498Z,98975.59
2023-01-09T09:48:07.968Z,98966.94
2023-01-09T09:49:12.902Z,98973.56
2023-01-09T09:50:14.415Z,98985.53
2023-01-09T09:51:22.041Z,98983.28
2023-01-09T09:52:26.373Z,98981.09
2023-01-09T09:53:38.664Z,98981.16
2023-01-09T09:54:40.945Z,98979.44
2023-01-09T09:55:42.474Z,98986.66
2023-01-09T09:56:53.351Z,98988.63
2023-01-09T09:57:54.839Z,98981.16
2023-01-09T09:58:57.581Z,98985.84
2023-01-09T09:59:59.096Z,98984.47
2023-01-09T10:01:00.585Z,98979.63
2023-01-09T10:02:25.160Z,98978.03
2023-01-09T10:03:33.980Z,98990.84
2023-01-09T10:04:37.053Z,98983.13
2023-01-09T10:05:40.706Z,98987.28
2023-01-09T10:06:46.103Z,98979.50
2023-01-09T10:07:48.209Z,98997.31
2023-01-09T10:08:57.857Z,98978.66
2023-01-09T10:10:00.626Z,98974.66
2023-01-09T10:11:02.148Z,98978.13
2023-01-09T10:12:22.049Z,98976.97
2023-01-09T10:13:42.623Z,98984.81
2023-01-09T10:14:44.151Z,98977.22
2023-01-09T10:15:46.346Z,98974.38
2023-01-09T10:16:51.841Z,98986.84
2023-01-09T10:18:05.163Z,98978.72
2023-01-09T10:19:06.661Z,98980.19
2023-01-09T10:20:08.197Z,98996.94
2023-01-09T10:21:12.820Z,98980.84
2023-01-09T10:22:14.326Z,98982.78
2023-01-09T10:23:31.944Z,98985.28
2023-01-09T10:25:09.406Z,98986.94
2023-01-09T10:26:18.853Z,98988.84
2023-01-09T10:27:32.316Z,98988.28
2023-01-09T10:28:42.450Z,98979.28
2023-01-09T10:30:01.738Z,98982.28
2023-01-09T10:31:22.325Z,98983.13
2023-01-09T10:32:53.435Z,98988.69
2023-01-09T10:33:54.940Z,98979.81
2023-01-09T10:35:15.231Z,98970.31
2023-01-09T10:36:16.722Z,98985.63
2023-01-09T10:37:22.915Z,98995.69
2023-01-09T10:38:29.186Z,98995.66
2023-01-09T10:39:45.930Z,98987.81
2023-01-09T10:40:49.767Z,98996.09
2023-01-09T10:41:54.553Z,98980.06
2023-01-09T10:42:58.558Z,98987.78
2023-01-09T10:44:02.223Z,98974.88
2023-01-09T10:45:07.987Z,98984.91
2023-01-09T10:46:10.457Z,98984.59
2023-01-09T10:47:32.273Z,98979.84
2023-01-09T10:48:37.308Z,98972.84
2023-01-09T10:49:38.803Z,98973.13
2023-01-09T10:50:40.456Z,98982.72
2023-01-09T10:51:51.532Z,98982.81
2023-01-09T10:52:53.529Z,98982.31
2023-01-09T10:53:55.385Z,98977.25
2023-01-09T10:54:57.998Z,98974.16
2023-01-09T10:56:01.233Z,98968.34
2023-01-09T10:57:06.213Z,98974.75
2023-01-09T10:58:14.024Z,98986.72
2023-01-09T10:59:15.529Z,98974.50
2023-01-09T11:00:18.037Z,98986.31
2023-01-09T11:01:21.147Z,98979.63
2023-01-09T11:02:32.281Z,98979.59
2023-01-09T11:03:33.843Z,98973.44
2023-01-09T11:04:36.566Z,98982.31
2023-01-09T11:05:38.130Z,98994.00
2023-01-09T11:06:46.622Z,98996.78
2023-01-09T11:07:56.001Z,98983.03
2023-01-09T11:08:57.543Z,98976.91
2023-01-09T11:09:59.985Z,98979.41
2023-01-09T11:11:02.092Z,98977.44
2023-01-09T11:12:16.728Z,98975.50
2023-01-09T11:13:21.302Z,98980.78
2023-01-09T11:14:27.914Z,98978.28
2023-01-09T11:15:29.447Z,98972.41
2023-01-09T11:16:30.942Z,98984.22
2023-01-09T11:17:32.450Z,98978.03
2023-01-09T11:18:34.296Z,98994.69
2023-01-09T11:19:35.795Z,98981.91
2023-01-09T11:20:37.327Z,98976.03
2023-01-09T11:21:40.603Z,98982.09
2023-01-09T11:22:48.685Z,98975.16
2023-01-09T11:23:50.430Z,98975.19
2023-01-09T11:25:01.109Z,98981.31
2023-01-09T11:26:02.672Z,98983.75
2023-01-09T11:27:12.840Z,98990.97
2023-01-09T11:28:14.377Z,98978.78
2023-01-09T11:29:16.555Z,98975.69
2023-01-09T11:30:20.273Z,98972.00
2023-01-09T11:31:21.831Z,98977.25
2023-01-09T11:32:23.620Z,98976.06
2023-01-09T11:33:25.998Z,98981.06
2023-01-09T11:34:28.461Z,98982.13
2023-01-09T11:35:34.778Z,98985.19
2023-01-09T11:36:36.482Z,98979.84
2023-01-09T11:37:38.056Z,98987.31
2023-01-09T11:38:49.572Z,98982.56
2023-01-09T11:39:51.041Z,98981.75
2023-01-09T11:40:53.662Z,98981.28
2023-01-09T11:41:55.963Z,98977.13
2023-01-09T11:43:03.283Z,98986.56
2023-01-09T11:44:04.820Z,98985.44
2023-01-09T11:45:06.699Z,98981.50
2023-01-09T11:46:08.903Z,98992.44
2023-01-09T11:47:26.817Z,98979.03
2023-01-09T11:48:29.077Z,98984.59
2023-01-09T11:49:31.044Z,98981.06
2023-01-09T11:50:32.594Z,98994.44
2023-01-09T11:51:34.699Z,98984.66
2023-01-09T11:52:36.185Z,98988.28
2023-01-09T11:53:54.753Z,98976.66
2023-01-09T11:54:57.799Z,98983.66
2023-01-09T11:56:01.198Z,98976.66
2023-01-09T11:57:02.737Z,98972.13
2023-01-09T11:58:04.336Z,98987.47
2023-01-09T11:59:10.211Z,98975.00
2023-01-09T12:00:20.796Z,98976.88
2023-01-09T12:01:44.908Z,98978.28
2023-01-09T12:03:03.104Z,98984.38
2023-01-09T12:04:04.561Z,98986.06
2023-01-09T12:05:20.432Z,98980.34
2023-01-09T12:06:40.612Z,98994.81
2023-01-09T12:07:57.551Z,98992.31
2023-01-09T12:09:01.259Z,98983.28
2023-01-09T12:10:02.705Z,98985.50
2023-01-09T12:11:17.078Z,98986.25
2023-01-09T12:12:18.930Z,98986.16
2023-01-09T12:13:39.173Z,98987.19
2023-01-09T12:14:43.791Z,98988.28
2023-01-09T12:16:04.282Z,98990.16
2023-01-09T12:17:05.769Z,98987.91
2023-01-09T12:18:10.216Z,98982.88
2023-01-09T12:19:15.945Z,98988.13
2023-01-09T12:20:33.912Z,98994.00
2023-01-09T12:21:56.933Z,98981.81
2023-01-09T12:22:58.670Z,98985.66
2023-01-09T12:24:03.185Z,98979.47
2023-01-09T12:25:10.490Z,98982.88
2023-01-09T12:26:23.092Z,98984.22
2023-01-09T12:27:42.765Z,98990.78
2023-01-09T12:28:47.082Z,98989.56